createdAt,value
2023-01-01T00:00:32.822Z,48.00
2023-01-01T00:30:32.541Z,46.90
2023-01-01T00:31:35.917Z,47.80
2023-01-01T00:32:38.725Z,47.20
2023-01-01T00:33:43.458Z,47.40
2023-01-01T00:34:46.051Z,47.40
2023-01-01T00:35:48.504Z,47.50
2023-01-01T00:36:50.952Z,47.30
2023-01-01T00:37:55.325Z,47.10
2023-01-01T00:38:58.073Z,47.40
2023-01-01T00:40:00.570Z,47.50
2023-01-01T00:41:03.472Z,47.30
2023-01-01T00:42:05.884Z,47.30
2023-01-01T00:43:08.326Z,47.50
2023-01-01T00:44:10.659Z,47.40
2023-01-01T00:45:18.813Z,47.40
2023-01-01T00:46:23.711Z,47.40
2023-01-01T00:47:26.110Z,47.40
2023-01-01T00:48:28.854Z,47.40
2023-01-01T00:49:31.561Z,47.80
2023-01-01T00:50:33.930Z,46.90
2023-01-01T00:51:37.341Z,46.60
2023-01-01T00:52:39.871Z,46.10
2023-01-01T00:53:42.275Z,46.00
2023-01-01T00:54:44.700Z,46.00
2023-01-01T00:55:49.168Z,46.00
2023-01-01T00:56:51.782Z,45.90
2023-01-01T00:57:54.078Z,46.00
2023-01-01T00:59:00.602Z,46.00
2023-01-01T01:00:05.917Z,46.40
2023-01-01T01:01:08.288Z,47.20
2023-01-01T01:02:10.889Z,47.50
2023-01-01T01:03:28.018Z,47.60
2023-01-01T01:04:30.537Z,47.70
2023-01-01T01:05:34.499Z,47.70
2023-01-01T01:06:37.823Z,47.70
2023-01-01T01:07:41.837Z,47.90
2023-01-01T01:08:46.380Z,47.80
2023-01-01T01:09:48.726Z,47.70
2023-01-01T01:10:51.110Z,47.90
2023-01-01T01:12:18.161Z,47.90
2023-01-01T01:13:16.891Z,47.60
2023-01-01T01:14:19.253Z,47.60
2023-01-01T01:15:21.777Z,48.20
2023-01-01T01:16:31.705Z,47.60
2023-01-01T01:17:34.441Z,47.40
2023-01-01T01:18:36.886Z,47.50
2023-01-01T01:19:39.178Z,47.50
2023-01-01T01:20:48.949Z,47.60
2023-01-01T01:21:52.102Z,47.40
2023-01-01T01:22:54.928Z,47.50
2023-01-01T01:23:58.886Z,47.80
2023-01-01T01:25:01.427Z,47.80
2023-01-01T01:26:12.592Z,47.80
2023-01-01T01:27:14.952Z,48.40
2023-01-01T01:28:17.283Z,47.80
2023-01-01T01:29:19.779Z,47.80
2023-01-01T01:30:22.121Z,47.80
2023-01-01T01:31:27.067Z,48.10
2023-01-01T01:32:29.528Z,48.10
2023-01-01T01:33:32.437Z,48.00
2023-01-01T01:34:34.792Z,47.90
2023-01-01T01:35:37.193Z,47.80
2023-01-01T01:36:39.492Z,47.90
2023-01-01T01:37:41.860Z,48.00
2023-01-01T01:38:44.312Z,47.70
2023-01-01T01:39:51.712Z,47.90
2023-01-01T01:40:56.990Z,48.00
2023-01-01T01:42:02.463Z,48.20
2023-01-01T01:43:10.758Z,48.00
2023-01-01T01:44:49.552Z,48.00
2023-01-01T01:46:10.161Z,48.00
2023-01-01T01:47:38.640Z,48.30
2023-01-01T01:48:44.830Z,47.30
2023-01-01T01:49:47.914Z,46.10
2023-01-01T01:50:52.403Z,46.70
2023-01-01T01:51:55.765Z,47.30
2023-01-01T01:53:03.898Z,47.60
2023-01-01T01:54:11.888Z,47.70
2023-01-01T01:55:14.815Z,47.50
2023-01-01T01:56:23.730Z,48.40
2023-01-01T01:57:26.165Z,48.40
2023-01-01T01:58:31.026Z,48.00
2023-01-01T01:59:37.665Z,47.90
2023-01-01T02:00:40.057Z,47.90
2023-01-01T02:01:42.614Z,47.70
2023-01-01T02:02:59.865Z,48.00
2023-01-01T02:04:03.815Z,48.30
2023-01-01T02:05:06.791Z,48.10
2023-01-01T02:06:09.984Z,48.20
2023-01-01T02:07:15.091Z,48.30
2023-01-01T02:08:19.002Z,48.50
2023-01-01T02:09:21.705Z,48.30
2023-01-01T02:10:24.028Z,48.40
2023-01-01T02:11:26.868Z,48.50
2023-01-01T02:12:29.416Z,48.60
2023-01-01T02:13:32.052Z,48.50
2023-01-01T02:14:34.444Z,48.30
2023-01-01T02:15:54.427Z,48.10
2023-01-01T02:17:02.362Z,48.60
2023-01-01T02:18:13.236Z,48.70
2023-01-01T02:19:26.420Z,48.60
2023-01-01T02:20:43.866Z,48.30
2023-01-01T02:22:14.873Z,48.60
2023-01-01T02:23:28.545Z,48.60
2023-01-01T02:24:52.506Z,48.80
2023-01-01T02:26:20.700Z,48.60
2023-01-01T02:27:51.069Z,48.50
2023-01-01T02:28:59.523Z,48.70
2023-01-01T02:30:05.841Z,48.10
2023-01-01T02:31:11.343Z,47.40
2023-01-01T02:32:21.057Z,47.30
2023-01-01T02:33:26.633Z,47.30
2023-01-01T02:34:35.202Z,47.40
2023-01-01T02:35:42.423Z,47.70
2023-01-01T02:36:50.220Z,47.50
2023-01-01T02:37:59.322Z,47.90
2023-01-01T02:39:04.109Z,48.50
2023-01-01T02:40:06.846Z,48.80
2023-01-01T02:41:27.097Z,48.80
2023-01-01T02:42:30.393Z,48.70
2023-01-01T02:43:32.826Z,48.70
2023-01-01T02:44:39.048Z,48.70
2023-01-01T02:45:41.841Z,48.50
2023-01-01T02:46:44.160Z,48.50
2023-01-01T02:47:46.794Z,48.40
2023-01-01T02:48:53.137Z,48.20
2023-01-01T02:50:16.352Z,48.20
2023-01-01T02:51:56.174Z,48.20
2023-01-01T02:53:20.049Z,48.00
2023-01-01T02:54:43.520Z,48.00
2023-01-01T02:56:04.642Z,48.00
2023-01-01T02:57:12.967Z,48.10
2023-01-01T02:58:45.756Z,48.10
2023-01-01T03:00:19.760Z,47.70
2023-01-01T03:01:27.935Z,47.70
2023-01-01T03:02:50.257Z,47.70
2023-01-01T03:04:09.149Z,47.50
2023-01-01T03:05:25.027Z,47.60
2023-01-01T03:06:58.340Z,47.60
2023-01-01T03:08:18.103Z,47.80
2023-01-01T03:09:44.559Z,47.80
2023-01-01T03:11:12.076Z,48.10
2023-01-01T03:12:39.412Z,47.80
2023-01-01T03:14:03.075Z,47.80
2023-01-01T03:15:32.704Z,47.60
2023-01-01T03:16:59.863Z,47.50
2023-01-01T03:18:18.838Z,47.50
2023-01-01T03:19:25.682Z,47.80
2023-01-01T03:20:32.744Z,47.30
2023-01-01T03:21:35.708Z,47.40
2023-01-01T03:23:50.182Z,47.50
2023-01-01T03:25:04.386Z,47.80
2023-01-01T03:26:12.053Z,47.80
2023-01-01T03:27:41.592Z,47.50
2023-01-01T03:28:51.874Z,47.60
2023-01-01T03:29:57.053Z,47.40
2023-01-01T03:31:00.739Z,47.70
2023-01-01T03:32:06.361Z,47.60
2023-01-01T03:33:25.260Z,47.50
2023-01-01T03:34:35.588Z,47.50
2023-01-01T03:35:47.093Z,48.20
2023-01-01T03:36:55.556Z,47.60
2023-01-01T03:38:01.386Z,47.50
2023-01-01T03:39:13.170Z,47.50
2023-01-01T03:40:18.894Z,47.60
2023-01-01T03:41:29.785Z,47.50
2023-01-01T03:42:36.950Z,47.70
2023-01-01T03:43:54.284Z,47.60
2023-01-01T03:45:07.114Z,47.70
2023-01-01T03:46:12.798Z,47.60
2023-01-01T03:47:15.774Z,47.60
2023-01-01T03:48:18.860Z,47.50
2023-01-01T03:49:22.118Z,47.50
2023-01-01T03:50:35.300Z,47.50
2023-01-01T03:51:43.249Z,47.60
2023-01-01T03:52:58.005Z,47.50
2023-01-01T03:54:07.126Z,47.60
2023-01-01T03:55:35.168Z,47.60
2023-01-01T03:56:47.756Z,47.60
2023-01-01T03:58:18.763Z,47.60
2023-01-01T04:00:05.231Z,47.60
2023-01-01T04:01:29.572Z,47.30
2023-01-01T04:02:40.171Z,47.20
2023-01-01T04:03:42.927Z,47.30
2023-01-01T04:04:46.434Z,47.50
2023-01-01T04:05:49.075Z,47.30
2023-01-01T04:06:51.765Z,47.40
2023-01-01T04:07:55.511Z,47.50
2023-01-01T04:09:00.088Z,47.40
2023-01-01T04:10:16.933Z,47.10
2023-01-01T04:11:41.405Z,47.10
2023-01-01T04:12:44.838Z,47.60
2023-01-01T04:13:47.985Z,47.30
2023-01-01T04:14:50.311Z,47.40
2023-01-01T04:15:52.721Z,47.20
2023-01-01T04:16:56.598Z,47.20
2023-01-01T04:17:59.303Z,47.10
2023-01-01T04:19:02.348Z,47.10
2023-01-01T04:20:05.498Z,47.40
2023-01-01T04:21:07.845Z,47.20
2023-01-01T04:22:10.320Z,47.20
2023-01-01T04:23:12.659Z,47.50
2023-01-01T04:24:15.138Z,47.50
2023-01-01T04:25:18.191Z,47.30
2023-01-01T04:26:20.627Z,47.20
2023-01-01T04:27:22.975Z,47.30
2023-01-01T04:28:25.305Z,47.60
2023-01-01T04:29:27.622Z,45.90
2023-01-01T04:30:30.544Z,45.40
2023-01-01T04:31:34.710Z,46.20
2023-01-01T04:32:37.140Z,46.50
2023-01-01T04:33:39.495Z,47.00
2023-01-01T04:34:41.803Z,47.10
2023-01-01T04:35:44.208Z,47.40
2023-01-01T04:36:46.661Z,47.40
2023-01-01T04:37:48.980Z,47.90
2023-01-01T04:38:51.299Z,48.00
2023-01-01T04:39:54.001Z,48.00
2023-01-01T04:41:00.346Z,48.20
2023-01-01T04:42:02.625Z,48.20
2023-01-01T04:43:04.915Z,48.30
2023-01-01T04:44:07.347Z,48.30
2023-01-01T04:45:12.390Z,48.30
2023-01-01T04:46:14.792Z,48.20
2023-01-01T04:47:17.104Z,48.40
2023-01-01T04:48:19.353Z,48.50
2023-01-01T04:49:21.761Z,48.50
2023-01-01T04:50:24.229Z,48.40
2023-01-01T04:51:26.649Z,48.50
2023-01-01T04:52:29.022Z,48.30
2023-01-01T04:53:33.593Z,48.40
2023-01-01T04:54:36.026Z,48.40
2023-01-01T04:55:38.314Z,48.40
2023-01-01T04:56:40.623Z,48.30
2023-01-01T04:57:43.003Z,49.00
2023-01-01T04:58:46.620Z,48.40
2023-01-01T04:59:48.969Z,48.40
2023-01-01T05:00:51.652Z,48.40
2023-01-01T05:01:54.324Z,48.70
2023-01-01T05:02:56.932Z,48.90
2023-01-01T05:04:00.424Z,48.80
2023-01-01T05:05:02.730Z,48.80
2023-01-01T05:06:10.774Z,48.70
2023-01-01T05:07:13.069Z,48.60
2023-01-01T05:08:15.959Z,48.60
2023-01-01T05:09:18.886Z,48.50
2023-01-01T05:10:21.199Z,48.30
2023-01-01T05:11:29.038Z,48.60
2023-01-01T05:12:31.602Z,48.70
2023-01-01T05:13:42.455Z,48.60
2023-01-01T05:14:44.777Z,48.70
2023-01-01T05:15:47.069Z,48.50
2023-01-01T05:16:49.590Z,48.60
2023-01-01T05:17:52.075Z,48.70
2023-01-01T05:18:55.096Z,48.50
2023-01-01T05:19:57.693Z,48.60
2023-01-01T05:21:01.740Z,48.40
2023-01-01T05:22:10.142Z,48.60
2023-01-01T05:23:13.094Z,48.70
2023-01-01T05:24:15.845Z,48.50
2023-01-01T05:25:18.180Z,48.60
2023-01-01T05:26:23.391Z,48.50
2023-01-01T05:27:25.754Z,48.50
2023-01-01T05:28:28.076Z,48.70
2023-01-01T05:29:30.376Z,48.90
2023-01-01T05:30:32.627Z,48.80
2023-01-01T05:31:36.154Z,48.80
2023-01-01T05:32:38.851Z,49.80
2023-01-01T05:33:42.203Z,50.10
2023-01-01T05:34:44.519Z,49.30
2023-01-01T05:35:53.182Z,49.40
2023-01-01T05:36:56.233Z,49.40
2023-01-01T05:37:58.650Z,49.40
2023-01-01T05:39:01.086Z,49.30
2023-01-01T05:40:03.544Z,49.00
2023-01-01T05:41:11.717Z,48.90
2023-01-01T05:42:15.465Z,48.40
2023-01-01T05:43:18.176Z,48.30
2023-01-01T05:44:20.527Z,48.00
2023-01-01T05:45:22.908Z,48.00
2023-01-01T05:46:25.402Z,47.90
2023-01-01T05:47:30.063Z,48.80
2023-01-01T05:48:33.148Z,47.60
2023-01-01T05:49:36.380Z,47.70
2023-01-01T05:50:39.029Z,47.30
2023-01-01T05:52:42.853Z,47.20
2023-01-01T05:53:45.339Z,47.20
2023-01-01T05:54:47.694Z,47.60
2023-01-01T05:55:53.898Z,47.40
2023-01-01T05:56:56.261Z,47.30
2023-01-01T05:57:58.698Z,47.40
2023-01-01T05:59:01.313Z,47.30
2023-01-01T06:00:04.197Z,47.40
2023-01-01T06:01:19.125Z,47.40
2023-01-01T06:02:21.560Z,47.60
2023-01-01T06:03:23.950Z,47.50
2023-01-01T06:04:27.918Z,47.60
2023-01-01T06:05:30.240Z,47.60
2023-01-01T06:06:33.720Z,47.50
2023-01-01T06:07:36.042Z,47.40
2023-01-01T06:08:38.877Z,47.50
2023-01-01T06:09:41.291Z,47.50
2023-01-01T06:10:43.663Z,47.40
2023-01-01T06:11:46.006Z,47.80
2023-01-01T06:12:48.359Z,48.00
2023-01-01T06:13:55.446Z,47.60
2023-01-01T06:14:57.777Z,47.90
2023-01-01T06:16:01.727Z,47.40
2023-01-01T06:17:04.341Z,47.40
2023-01-01T06:18:06.780Z,47.30
2023-01-01T06:19:09.181Z,47.50
2023-01-01T06:20:11.695Z,47.50
2023-01-01T06:21:16.809Z,47.40
2023-01-01T06:22:19.252Z,47.60
2023-01-01T06:23:21.742Z,47.60
2023-01-01T06:24:24.066Z,47.60
2023-01-01T06:25:26.440Z,47.70
2023-01-01T06:26:31.402Z,47.50
2023-01-01T06:27:35.396Z,47.60
2023-01-01T06:28:38.356Z,47.50
2023-01-01T06:29:40.731Z,47.50
2023-01-01T06:30:43.218Z,47.50
2023-01-01T06:31:45.607Z,47.50
2023-01-01T06:32:48.247Z,47.50
2023-01-01T06:33:51.278Z,47.60
2023-01-01T06:34:53.684Z,47.50
2023-01-01T06:35:56.130Z,47.50
2023-01-01T06:37:04.643Z,47.60
2023-01-01T06:38:08.986Z,47.60
2023-01-01T06:39:11.359Z,47.60
2023-01-01T06:40:14.589Z,47.60
2023-01-01T06:41:19.477Z,47.50
2023-01-01T06:42:21.764Z,47.50
2023-01-01T06:43:24.090Z,47.60
2023-01-01T06:44:26.388Z,47.50
2023-01-01T06:45:28.743Z,47.50
2023-01-01T06:46:33.461Z,47.50
2023-01-01T06:47:36.494Z,47.50
2023-01-01T06:48:42.196Z,47.60
2023-01-01T06:49:44.528Z,47.50
2023-01-01T06:50:46.817Z,47.50
2023-01-01T06:51:49.170Z,47.40
2023-01-01T06:52:51.516Z,47.60
2023-01-01T06:53:54.215Z,47.50
2023-01-01T06:54:56.707Z,47.40
2023-01-01T06:55:59.107Z,47.40
2023-01-01T06:57:01.428Z,47.40
2023-01-01T06:58:09.124Z,47.50
2023-01-01T06:59:11.555Z,47.50
2023-01-01T07:00:14.803Z,47.50
2023-01-01T07:01:22.111Z,47.60
2023-01-01T07:02:24.670Z,47.50
2023-01-01T07:03:27.113Z,47.80
2023-01-01T07:04:29.424Z,47.60
2023-01-01T07:05:31.716Z,47.60
2023-01-01T07:06:35.153Z,47.60
2023-01-01T07:07:37.584Z,47.60
2023-01-01T07:08:40.042Z,47.50
2023-01-01T07:09:42.369Z,47.80
2023-01-01T07:10:44.677Z,48.00
2023-01-01T07:11:46.977Z,47.60
2023-01-01T07:12:49.294Z,47.60
2023-01-01T07:13:51.608Z,47.70
2023-01-01T07:14:53.971Z,47.70
2023-01-01T07:15:56.649Z,47.90
2023-01-01T07:16:58.970Z,48.00
2023-01-01T07:18:01.413Z,47.80
2023-01-01T07:19:03.782Z,48.10
2023-01-01T07:20:06.701Z,47.90
2023-01-01T07:21:31.990Z,47.80
2023-01-01T07:22:35.713Z,47.70
2023-01-01T07:23:38.057Z,47.60
2023-01-01T07:24:41.875Z,47.80
2023-01-01T07:25:44.245Z,48.20
2023-01-01T07:26:46.705Z,48.00
2023-01-01T07:27:49.116Z,48.40
2023-01-01T07:28:52.050Z,48.20
2023-01-01T07:29:54.435Z,47.80
2023-01-01T07:30:56.990Z,47.60
2023-01-01T07:31:59.370Z,47.40
2023-01-01T07:33:02.047Z,47.30
2023-01-01T07:34:05.719Z,46.90
2023-01-01T07:35:08.401Z,46.90
2023-01-01T07:36:11.032Z,46.90
2023-01-01T07:37:13.309Z,46.80
2023-01-01T07:38:15.924Z,46.70
2023-01-01T07:39:18.275Z,46.50
2023-01-01T07:40:20.611Z,46.50
2023-01-01T07:41:22.886Z,46.40
2023-01-01T07:42:25.223Z,46.40
2023-01-01T07:43:27.563Z,46.40
2023-01-01T07:44:30.003Z,46.30
2023-01-01T07:45:33.514Z,46.30
2023-01-01T07:46:36.767Z,46.70
2023-01-01T07:47:39.519Z,46.20
2023-01-01T07:48:42.181Z,46.20
2023-01-01T07:49:44.482Z,46.10
2023-01-01T07:50:46.843Z,46.50
2023-01-01T07:51:49.217Z,45.90
2023-01-01T07:52:51.601Z,45.40
2023-01-01T07:53:53.937Z,46.30
2023-01-01T07:54:56.215Z,45.90
2023-01-01T07:55:58.606Z,47.00
2023-01-01T07:57:00.941Z,46.40
2023-01-01T07:58:03.905Z,46.50
2023-01-01T07:59:06.250Z,46.10
2023-01-01T08:00:14.351Z,46.10
2023-01-01T08:01:19.077Z,46.90
2023-01-01T08:02:21.694Z,46.90
2023-01-01T08:03:24.261Z,46.20
2023-01-01T08:04:29.542Z,46.30
2023-01-01T08:05:33.968Z,46.00
2023-01-01T08:06:37.951Z,45.90
2023-01-01T08:07:40.380Z,45.50
2023-01-01T08:08:42.712Z,45.80
2023-01-01T08:09:45.061Z,45.80
2023-01-01T08:10:47.385Z,45.70
2023-01-01T08:11:52.760Z,45.80
2023-01-01T08:13:00.617Z,45.80
2023-01-01T08:14:02.921Z,45.80
2023-01-01T08:15:05.720Z,45.60
2023-01-01T08:16:08.293Z,45.70
2023-01-01T08:17:10.737Z,45.90
2023-01-01T08:18:13.031Z,45.80
2023-01-01T08:19:15.323Z,45.80
2023-01-01T08:20:17.723Z,45.90
2023-01-01T08:21:20.029Z,45.90
2023-01-01T08:22:22.437Z,45.70
2023-01-01T08:23:24.792Z,45.50
2023-01-01T08:24:27.129Z,45.20
2023-01-01T08:25:29.725Z,45.30
2023-01-01T08:26:34.833Z,45.30
2023-01-01T08:27:41.327Z,45.40
2023-01-01T08:28:44.920Z,45.50
2023-01-01T08:29:47.325Z,45.50
2023-01-01T08:30:49.930Z,45.50
2023-01-01T08:31:52.730Z,45.70
2023-01-01T08:32:55.536Z,46.10
2023-01-01T08:33:58.027Z,46.20
2023-01-01T08:35:00.568Z,46.10
2023-01-01T08:36:03.091Z,46.10
2023-01-01T08:37:06.315Z,46.30
2023-01-01T08:38:11.812Z,46.20
2023-01-01T08:39:14.110Z,46.20
2023-01-01T08:40:16.431Z,46.30
2023-01-01T08:41:19.160Z,46.30
2023-01-01T08:42:21.455Z,46.30
2023-01-01T08:43:23.731Z,46.20
2023-01-01T08:44:26.024Z,46.30
2023-01-01T08:45:28.300Z,46.20
2023-01-01T08:46:30.635Z,46.30
2023-01-01T08:47:33.008Z,46.30
2023-01-01T08:48:35.399Z,46.30
2023-01-01T08:49:37.723Z,46.30
2023-01-01T08:50:40.070Z,46.40
2023-01-01T08:51:42.374Z,46.40
2023-01-01T08:52:44.698Z,46.50
2023-01-01T08:53:50.853Z,46.50
2023-01-01T08:54:53.638Z,46.50
2023-01-01T08:55:57.842Z,46.40
2023-01-01T08:57:00.346Z,46.60
2023-01-01T08:58:08.057Z,46.50
2023-01-01T08:59:10.894Z,46.40
2023-01-01T09:00:13.960Z,46.40
2023-01-01T09:01:16.912Z,46.40
2023-01-01T09:02:20.086Z,46.40
2023-01-01T09:03:24.226Z,46.40
2023-01-01T09:04:26.991Z,46.40
2023-01-01T09:05:29.642Z,46.50
2023-01-01T09:06:32.260Z,46.60
2023-01-01T09:07:34.811Z,46.40
2023-01-01T09:08:37.435Z,46.60
2023-01-01T09:09:39.964Z,47.00
2023-01-01T09:10:46.235Z,47.00
2023-01-01T09:11:55.322Z,47.10
2023-01-01T09:12:57.885Z,47.20
2023-01-01T09:14:00.600Z,46.80
2023-01-01T09:15:03.584Z,46.50
2023-01-01T09:16:06.643Z,46.40
2023-01-01T09:17:09.290Z,46.50
2023-01-01T09:18:12.917Z,46.30
2023-01-01T09:19:15.496Z,46.30
2023-01-01T09:20:17.998Z,46.30
2023-01-01T09:21:20.881Z,46.30
2023-01-01T09:22:23.236Z,46.30
2023-01-01T09:23:25.696Z,46.30
2023-01-01T09:24:28.205Z,46.20
2023-01-01T09:25:30.822Z,46.30
2023-01-01T09:26:33.299Z,46.30
2023-01-01T09:27:35.714Z,46.20
2023-01-01T09:28:38.528Z,46.80
2023-01-01T09:29:41.113Z,46.20
2023-01-01T09:30:43.543Z,46.30
2023-01-01T09:31:46.764Z,46.40
2023-01-01T09:32:49.274Z,46.40
2023-01-01T09:33:52.131Z,46.40
2023-01-01T09:34:55.019Z,46.40
2023-01-01T09:36:16.172Z,47.00
2023-01-01T09:37:18.609Z,46.50
2023-01-01T09:38:20.940Z,46.60
2023-01-01T09:39:23.228Z,46.50
2023-01-01T09:40:32.657Z,46.70
2023-01-01T09:41:44.922Z,46.70
2023-01-01T09:42:52.524Z,46.60
2023-01-01T09:44:20.395Z,46.70
2023-01-01T09:45:31.649Z,46.70
2023-01-01T09:46:34.139Z,46.80
2023-01-01T09:47:43.005Z,46.60
2023-01-01T09:48:57.054Z,46.80
2023-01-01T09:50:04.738Z,47.00
2023-01-01T09:51:17.036Z,47.00
2023-01-01T09:52:21.199Z,46.90
2023-01-01T09:53:48.814Z,47.10
2023-01-01T09:54:58.944Z,47.40
2023-01-01T09:56:04.214Z,47.50
2023-01-01T09:57:16.381Z,47.60
2023-01-01T09:58:27.311Z,47.60
2023-01-01T09:59:30.190Z,47.60
2023-01-01T10:00:34.804Z,47.50
2023-01-01T10:01:52.913Z,47.60
2023-01-01T10:03:18.406Z,47.40
2023-01-01T10:04:26.673Z,47.40
2023-01-01T10:06:05.598Z,47.80
2023-01-01T10:07:42.045Z,48.10
2023-01-01T10:08:57.116Z,48.00
2023-01-01T10:10:30.258Z,48.00
2023-01-01T10:11:56.202Z,48.00
2023-01-01T10:13:27.127Z,48.10
2023-01-01T10:14:40.976Z,48.00
2023-01-01T10:16:24.964Z,48.10
2023-01-01T10:17:41.998Z,48.10
2023-01-01T10:18:47.729Z,48.30
2023-01-01T10:19:53.813Z,48.20
2023-01-01T10:21:07.969Z,48.20
2023-01-01T10:22:29.044Z,48.30
2023-01-01T10:23:39.150Z,48.30
2023-01-01T10:24:44.297Z,48.30
2023-01-01T10:25:47.418Z,48.40
2023-01-01T10:26:52.220Z,48.20
2023-01-01T10:28:01.954Z,48.30
2023-01-01T10:29:22.315Z,48.30
2023-01-01T10:30:25.420Z,48.20
2023-01-01T10:31:41.035Z,48.30
2023-01-01T10:32:48.470Z,48.40
2023-01-01T10:33:50.859Z,45.20
2023-01-01T10:34:53.300Z,44.60
2023-01-01T10:35:58.701Z,43.80
2023-01-01T10:37:02.434Z,43.20
2023-01-01T10:38:05.701Z,43.70
2023-01-01T10:39:16.580Z,46.20
2023-01-01T10:40:21.467Z,47.20
2023-01-01T10:41:23.967Z,48.10
2023-01-01T10:42:26.543Z,48.10
2023-01-01T10:43:29.006Z,48.00
2023-01-01T10:44:34.352Z,48.20
2023-01-01T10:45:50.674Z,48.10
2023-01-01T10:46:59.753Z,48.00
2023-01-01T10:48:15.780Z,48.10
2023-01-01T10:49:18.094Z,48.10
2023-01-01T10:50:20.500Z,48.10
2023-01-01T10:51:24.919Z,48.20
2023-01-01T10:52:34.983Z,48.10
2023-01-01T10:53:43.105Z,48.20
2023-01-01T10:54:45.428Z,48.10
2023-01-01T10:55:58.722Z,48.20
2023-01-01T10:57:16.506Z,48.30
2023-01-01T10:58:38.777Z,48.90
2023-01-01T10:59:46.735Z,48.40
2023-01-01T11:01:00.165Z,48.30
2023-01-01T11:02:17.071Z,48.40
2023-01-01T11:03:21.376Z,48.50
2023-01-01T11:04:23.817Z,47.00
2023-01-01T11:05:26.291Z,46.50
2023-01-01T11:06:39.434Z,46.10
2023-01-01T11:07:44.136Z,47.30
2023-01-01T11:08:49.959Z,45.20
2023-01-01T11:10:03.053Z,48.10
2023-01-01T11:11:06.661Z,48.00
2023-01-01T11:12:46.118Z,45.30
2023-01-01T11:13:41.616Z,46.40
2023-01-01T11:14:53.745Z,45.10
2023-01-01T11:15:56.484Z,46.60
2023-01-01T11:17:00.155Z,46.80
2023-01-01T11:18:05.751Z,44.90
2023-01-01T11:19:17.551Z,44.50
2023-01-01T11:20:20.472Z,44.60
2023-01-01T11:21:23.945Z,45.20
2023-01-01T11:22:38.037Z,45.60
2023-01-01T11:23:40.359Z,44.20
2023-01-01T11:25:00.507Z,43.80
2023-01-01T11:26:14.687Z,44.40
2023-01-01T11:27:25.015Z,45.90
2023-01-01T11:28:31.285Z,46.70
2023-01-01T11:29:33.615Z,47.40
2023-01-01T11:30:36.047Z,46.90
2023-01-01T11:31:40.051Z,42.20
2023-01-01T11:32:42.549Z,42.70
2023-01-01T11:33:50.339Z,42.80
2023-01-01T11:35:00.288Z,43.10
2023-01-01T11:36:04.576Z,41.10
2023-01-01T11:37:25.454Z,41.30
2023-01-01T11:38:30.446Z,40.40
2023-01-01T11:39:37.149Z,40.50
2023-01-01T11:40:47.354Z,40.40
2023-01-01T11:41:52.587Z,40.80
2023-01-01T11:43:02.358Z,41.20
2023-01-01T11:44:04.761Z,41.00
2023-01-01T11:45:20.139Z,41.50
2023-01-01T11:46:25.562Z,41.30
2023-01-01T11:47:37.105Z,41.70
2023-01-01T11:48:43.024Z,40.00
2023-01-01T11:49:45.495Z,41.40
2023-01-01T11:51:00.661Z,41.70
2023-01-01T11:52:34.015Z,41.30
2023-01-01T11:53:43.700Z,41.80
2023-01-01T11:54:47.296Z,41.30
2023-01-01T11:55:55.055Z,42.30
2023-01-01T11:57:12.008Z,41.90
2023-01-01T11:58:32.107Z,41.60
2023-01-01T11:59:49.373Z,42.90
2023-01-01T12:00:56.638Z,42.80
2023-01-01T12:02:04.239Z,41.40
2023-01-01T12:03:25.538Z,41.40
2023-01-01T12:04:42.303Z,41.80
2023-01-01T12:05:53.002Z,41.90
2023-01-01T12:07:03.256Z,41.40
2023-01-01T12:08:10.580Z,40.70
2023-01-01T12:09:31.371Z,41.10
2023-01-01T12:10:44.837Z,41.30
2023-01-01T12:12:07.668Z,41.10
2023-01-01T12:13:19.672Z,40.90
2023-01-01T12:14:32.479Z,41.00
2023-01-01T12:15:52.321Z,42.60
2023-01-01T12:17:01.337Z,41.30
2023-01-01T12:18:50.221Z,41.00
2023-01-01T12:20:13.799Z,40.40
2023-01-01T12:21:28.311Z,42.40
2023-01-01T12:22:33.995Z,41.70
2023-01-01T12:23:36.739Z,40.70
2023-01-01T12:24:39.151Z,40.30
2023-01-01T12:25:44.625Z,42.20
2023-01-01T12:27:37.704Z,40.50
2023-01-01T12:29:10.555Z,41.20
2023-01-01T12:30:21.196Z,41.60
2023-01-01T12:31:34.742Z,41.20
2023-01-01T12:33:12.124Z,41.60
2023-01-01T12:34:26.256Z,40.80
2023-01-01T12:35:46.335Z,41.40
2023-01-01T12:37:20.011Z,40.10
2023-01-01T12:38:43.281Z,40.40
2023-01-01T12:40:32.236Z,40.60
2023-01-01T12:41:52.912Z,41.00
2023-01-01T12:43:05.382Z,40.60
2023-01-01T12:44:22.435Z,40.70
2023-01-01T12:46:09.339Z,40.30
2023-01-01T12:47:41.757Z,40.80
2023-01-01T12:49:05.941Z,40.90
2023-01-01T12:50:17.333Z,41.30
2023-01-01T12:51:34.694Z,40.30
2023-01-01T12:53:05.990Z,41.00
2023-01-01T12:54:40.942Z,40.20
2023-01-01T12:56:22.499Z,40.40
2023-01-01T12:57:31.495Z,41.20
2023-01-01T12:58:55.818Z,40.60
2023-01-01T13:00:01.966Z,40.50
2023-01-01T13:01:33.526Z,40.90
2023-01-01T13:02:41.669Z,40.30
2023-01-01T13:03:56.838Z,40.80
2023-01-01T13:05:13.311Z,40.90
2023-01-01T13:06:22.147Z,40.80
2023-01-01T13:07:39.860Z,41.60
2023-01-01T13:08:43.530Z,41.30
2023-01-01T13:09:48.216Z,41.00
2023-01-01T13:10:56.840Z,41.30
2023-01-01T13:12:27.263Z,40.90
2023-01-01T13:13:29.625Z,41.00
2023-01-01T13:14:42.305Z,42.10
2023-01-01T13:15:53.938Z,42.80
2023-01-01T13:16:57.826Z,43.20
2023-01-01T13:18:01.134Z,44.20
2023-01-01T13:19:04.277Z,44.00
2023-01-01T13:20:06.545Z,43.80
2023-01-01T13:21:22.556Z,44.20
2023-01-01T13:22:27.747Z,44.30
2023-01-01T13:23:36.302Z,44.40
2023-01-01T13:24:38.634Z,44.50
2023-01-01T13:25:41.018Z,44.60
2023-01-01T13:26:43.565Z,44.60
2023-01-01T13:27:58.046Z,44.70
2023-01-01T13:29:05.438Z,44.70
2023-01-01T13:30:41.291Z,44.80
2023-01-01T13:31:43.948Z,44.70
2023-01-01T13:33:29.876Z,44.70
2023-01-01T13:34:37.503Z,44.70
2023-01-01T13:35:41.555Z,44.80
2023-01-01T13:36:43.934Z,44.80
2023-01-01T13:37:46.845Z,44.80
2023-01-01T13:39:00.866Z,44.90
2023-01-01T13:40:24.667Z,44.90
2023-01-01T13:41:27.381Z,45.00
2023-01-01T13:42:59.179Z,44.90
2023-01-01T13:44:03.168Z,45.00
2023-01-01T13:45:52.304Z,45.10
2023-01-01T13:46:47.259Z,45.00
2023-01-01T13:47:52.210Z,45.10
2023-01-01T13:49:18.042Z,45.30
2023-01-01T13:50:59.217Z,45.20
2023-01-01T13:52:32.063Z,45.40
2023-01-01T13:53:52.429Z,45.40
2023-01-01T13:55:10.121Z,45.50
2023-01-01T13:56:21.291Z,45.60
2023-01-01T13:57:35.421Z,45.60
2023-01-01T13:58:49.368Z,45.60
2023-01-01T14:00:12.977Z,45.70
2023-01-01T14:01:30.707Z,45.70
2023-01-01T14:02:40.500Z,45.70
2023-01-01T14:03:46.426Z,45.80
2023-01-01T14:04:57.535Z,45.80
2023-01-01T14:06:04.753Z,45.80
2023-01-01T14:09:06.041Z,45.90
2023-01-01T14:10:18.992Z,45.80
2023-01-01T14:11:24.653Z,45.90
2023-01-01T14:12:26.919Z,45.80
2023-01-01T14:13:40.658Z,45.90
2023-01-01T14:14:43.171Z,45.90
2023-01-01T14:16:07.784Z,45.90
2023-01-01T14:17:14.448Z,45.90
2023-01-01T14:18:18.539Z,46.00
2023-01-01T14:19:22.353Z,46.10
2023-01-01T14:20:34.543Z,46.10
2023-01-01T14:21:39.232Z,46.10
2023-01-01T14:22:44.629Z,46.00
2023-01-01T14:23:55.007Z,46.20
2023-01-01T14:24:57.311Z,46.30
2023-01-01T14:26:06.632Z,46.40
2023-01-01T14:27:09.311Z,45.00
2023-01-01T14:28:26.046Z,43.70
2023-01-01T14:29:31.811Z,43.40
2023-01-01T14:30:34.251Z,43.30
2023-01-01T14:31:42.855Z,43.60
2023-01-01T14:32:45.559Z,43.90
2023-01-01T14:33:48.252Z,43.80
2023-01-01T14:35:01.719Z,44.30
2023-01-01T14:36:26.429Z,44.10
2023-01-01T14:37:28.946Z,44.30
2023-01-01T14:38:33.649Z,44.60
2023-01-01T14:39:37.440Z,44.80
2023-01-01T14:40:39.810Z,45.20
2023-01-01T14:41:42.950Z,45.60
2023-01-01T14:42:48.932Z,45.90
2023-01-01T14:43:53.695Z,45.70
2023-01-01T14:44:56.888Z,45.70
2023-01-01T14:46:01.672Z,45.80
2023-01-01T14:47:30.006Z,46.30
2023-01-01T14:48:32.888Z,46.10
2023-01-01T14:49:38.592Z,46.10
2023-01-01T14:50:40.948Z,46.00
2023-01-01T14:51:46.948Z,46.20
2023-01-01T14:52:56.189Z,45.90
2023-01-01T14:54:01.569Z,46.40
2023-01-01T14:55:05.864Z,46.50
2023-01-01T14:56:08.911Z,46.70
2023-01-01T14:57:16.752Z,46.30
2023-01-01T14:58:23.179Z,46.30
2023-01-01T14:59:31.041Z,46.30
2023-01-01T15:00:34.520Z,46.40
2023-01-01T15:01:37.111Z,46.40
2023-01-01T15:02:40.701Z,46.50
2023-01-01T15:03:59.283Z,46.40
2023-01-01T15:05:35.331Z,46.40
2023-01-01T15:06:41.761Z,46.50
2023-01-01T15:07:56.449Z,46.50